sensor_id;sensor_type;location;lat;lon;timestamp;temperature;humidity
2897;DHT22;1458;49.728;9.228;2022-09-27T00:01:31;10.80;99.90
2897;DHT22;1458;49.728;9.228;2022-09-27T00:03:59;10.70;99.90
2897;DHT22;1458;49.728;9.228;2022-09-27T00:06:29;10.80;99.90
2897;DHT22;1458;49.728;9.228;2022-09-27T00:09:01;10.90;99.90
2897;DHT22;1458;49.728;9.228;2022-09-27T00:11:32;10.90;99.90
2897;DHT22;1458;49.728;9.228;2022-09-27T00:14:01;10.90;99.90
2897;DHT22;1458;49.728;9.228;2022-09-27T00:16:31;10.90;99.90
2897;DHT22;1458;49.728;9.228;2022-09-27T00:19:00;11.00;99.90
2897;DHT22;1458;49.728;9.228;2022-09-27T00:21:31;11.10;99.90
2897;DHT22;1458;49.728;9.228;2022-09-27T00:23:59;11.00;99.90
2897;DHT22;1458;49.728;9.228;2022-09-27T00:26:27;11.00;99.90
2897;DHT22;1458;49.728;9.228;2022-09-27T00:28:55;10.90;99.90
2897;DHT22;1458;49.728;9.228;2022-09-27T00:31:24;11.00;99.90
2897;DHT22;1458;49.728;9.228;2022-09-27T00:33:57;10.90;99.90
2897;DHT22;1458;49.728;9.228;2022-09-27T00:36:28;11.00;99.90
2897;DHT22;1458;49.728;9.228;2022-09-27T00:38:57;11.00;99.90
2897;DHT22;1458;49.728;9.228;2022-09-27T00:41:28;11.00;99.90
2897;DHT22;1458;49.728;9.228;2022-09-27T00:43:58;11.00;99.90
2897;DHT22;1458;49.728;9.228;2022-09-27T00:46:32;11.00;99.90
2897;DHT22;1458;49.728;9.228;2022-09-27T00:49:06;10.90;99.90
2897;DHT22;1458;49.728;9.228;2022-09-27T00:51:38;10.90;99.90
2897;DHT22;1458;49.728;9.228;2022-09-27T00:54:11;10.90;99.90
2897;DHT22;1458;49.728;9.228;2022-09-27T00:56:40;10.90;99.90
2897;DHT22;1458;49.728;9.228;2022-09-27T00:59:14;10.90;99.90
2897;DHT22;1458;49.728;9.228;2022-09-27T01:01:45;10.90;99.90
2897;DHT22;1458;49.728;9.228;2022-09-27T01:04:16;10.80;99.90
2897;DHT22;1458;49.728;9.228;2022-09-27T01:06:47;10.80;99.90
2897;DHT22;1458;49.728;9.228;2022-09-27T01:09:19;10.90;99.90
2897;DHT22;1458;49.728;9.228;2022-09-27T01:11:50;10.80;99.90
2897;DHT22;1458;49.728;9.228;2022-09-27T01:14:40;10.80;99.90
2897;DHT22;1458;49.728;9.228;2022-09-27T01:17:27;10.70;99.90
2897;DHT22;1458;49.728;9.228;2022-09-27T01:20:19;10.70;99.90
2897;DHT22;1458;49.728;9.228;2022-09-27T01:23:13;10.70;99.90
2897;DHT22;1458;49.728;9.228;2022-09-27T01:26:05;10.70;99.90
2897;DHT22;1458;49.728;9.228;2022-09-27T01:28:50;10.60;99.90
2897;DHT22;1458;49.728;9.228;2022-09-27T01:31:29;10.60;99.90
2897;DHT22;1458;49.728;9.228;2022-09-27T01:34:03;10.70;99.90
2897;DHT22;1458;49.728;9.228;2022-09-27T01:36:41;10.70;99.90
2897;DHT22;1458;49.728;9.228;2022-09-27T01:39:21;10.80;99.90
2897;DHT22;1458;49.728;9.228;2022-09-27T01:42:20;10.80;99.90
2897;DHT22;1458;49.728;9.228;2022-09-27T01:45:01;10.80;99.90
2897;DHT22;1458;49.728;9.228;2022-09-27T01:47:45;10.80;99.90
2897;DHT22;1458;49.728;9.228;2022-09-27T01:50:50;10.80;99.90
2897;DHT22;1458;49.728;9.228;2022-09-27T01:53:24;10.70;99.90
2897;DHT22;1458;49.728;9.228;2022-09-27T01:56:32;10.60;99.90
2897;DHT22;1458;49.728;9.228;2022-09-27T01:59:08;10.60;99.90
2897;DHT22;1458;49.728;9.228;2022-09-27T02:01:47;10.70;99.90
2897;DHT22;1458;49.728;9.228;2022-09-27T02:04:21;10.70;99.90
2897;DHT22;1458;49.728;9.228;2022-09-27T02:07:12;10.70;99.90
2897;DHT22;1458;49.728;9.228;2022-09-27T02:09:47;10.80;99.90
2897;DHT22;1458;49.728;9.228;2022-09-27T02:12:23;10.80;99.90
2897;DHT22;1458;49.728;9.228;2022-09-27T02:14:57;10.70;99.90
2897;DHT22;1458;49.728;9.228;2022-09-27T02:17:38;10.70;99.90
2897;DHT22;1458;49.728;9.228;2022-09-27T02:20:14;10.70;99.90
2897;DHT22;1458;49.728;9.228;2022-09-27T02:22:56;10.70;99.90
2897;DHT22;1458;49.728;9.228;2022-09-27T02:25:39;10.60;99.90
2897;DHT22;1458;49.728;9.228;2022-09-27T02:28:17;10.60;99.90
2897;DHT22;1458;49.728;9.228;2022-09-27T02:30:49;10.70;99.90
2897;DHT22;1458;49.728;9.228;2022-09-27T02:33:26;10.70;99.90
2897;DHT22;1458;49.728;9.228;2022-09-27T02:35:59;10.70;99.90
2897;DHT22;1458;49.728;9.228;2022-09-27T02:38:28;10.60;99.90
2897;DHT22;1458;49.728;9.228;2022-09-27T02:40:57;10.50;99.90
2897;DHT22;1458;49.728;9.228;2022-09-27T02:43:28;10.50;99.90
2897;DHT22;1458;49.728;9.228;2022-09-27T02:46:10;10.40;99.90
2897;DHT22;1458;49.728;9.228;2022-09-27T02:48:53;10.40;99.90
2897;DHT22;1458;49.728;9.228;2022-09-27T02:51:36;10.50;99.90
2897;DHT22;1458;49.728;9.228;2022-09-27T02:54:15;10.50;99.90
2897;DHT22;1458;49.728;9.228;2022-09-27T02:57:28;10.50;99.90
2897;DHT22;1458;49.728;9.228;2022-09-27T03:00:20;10.40;99.90
2897;DHT22;1458;49.728;9.228;2022-09-27T03:02:58;10.40;99.90
2897;DHT22;1458;49.728;9.228;2022-09-27T03:05:39;10.40;99.90
2897;DHT22;1458;49.728;9.228;2022-09-27T03:08:10;10.40;99.90
2897;DHT22;1458;49.728;9.228;2022-09-27T03:10:39;10.40;99.90
2897;DHT22;1458;49.728;9.228;2022-09-27T03:13:07;10.50;99.90
2897;DHT22;1458;49.728;9.228;2022-09-27T03:15:35;10.50;99.90
2897;DHT22;1458;49.728;9.228;2022-09-27T03:18:03;10.50;99.90
2897;DHT22;1458;49.728;9.228;2022-09-27T03:20:51;10.50;99.90
2897;DHT22;1458;49.728;9.228;2022-09-27T03:23:22;10.40;99.90
2897;DHT22;1458;49.728;9.228;2022-09-27T03:25:50;10.40;99.90
2897;DHT22;1458;49.728;9.228;2022-09-27T03:28:19;10.40;99.90
2897;DHT22;1458;49.728;9.228;2022-09-27T03:30:47;10.50;99.90
2897;DHT22;1458;49.728;9.228;2022-09-27T03:33:41;10.60;99.90
2897;DHT22;1458;49.728;9.228;2022-09-27T03:36:10;10.40;99.90
2897;DHT22;1458;49.728;9.228;2022-09-27T03:38:40;10.50;99.90
2897;DHT22;1458;49.728;9.228;2022-09-27T03:41:11;10.40;99.90
2897;DHT22;1458;49.728;9.228;2022-09-27T03:43:39;10.60;99.90
2897;DHT22;1458;49.728;9.228;2022-09-27T03:46:06;10.60;99.90
2897;DHT22;1458;49.728;9.228;2022-09-27T03:48:35;10.60;99.90
2897;DHT22;1458;49.728;9.228;2022-09-27T03:51:03;10.60;99.90
2897;DHT22;1458;49.728;9.228;2022-09-27T03:53:31;10.50;99.90
2897;DHT22;1458;49.728;9.228;2022-09-27T03:56:00;10.50;99.90
2897;DHT22;1458;49.728;9.228;2022-09-27T03:58:29;10.60;99.90
2897;DHT22;1458;49.728;9.228;2022-09-27T04:00:57;10.60;99.90
2897;DHT22;1458;49.728;9.228;2022-09-27T04:03:27;10.70;99.90
2897;DHT22;1458;49.728;9.228;2022-09-27T04:06:15;10.70;99.90
2897;DHT22;1458;49.728;9.228;2022-09-27T04:08:44;10.60;99.90
2897;DHT22;1458;49.728;9.228;2022-09-27T04:11:13;10.50;99.90
2897;DHT22;1458;49.728;9.228;2022-09-27T04:13:44;10.60;99.90
2897;DHT22;1458;49.728;9.228;2022-09-27T04:16:12;10.60;99.90
2897;DHT22;1458;49.728;9.228;2022-09-27T04:18:51;10.60;99.90
2897;DHT22;1458;49.728;9.228;2022-09-27T04:21:38;10.60;99.90
2897;DHT22;1458;49.728;9.228;2022-09-27T04:24:08;10.70;99.90
2897;DHT22;1458;49.728;9.228;2022-09-27T04:26:39;10.70;99.90
2897;DHT22;1458;49.728;9.228;2022-09-27T04:29:12;10.60;99.90
2897;DHT22;1458;49.728;9.228;2022-09-27T04:31:47;10.50;99.90
2897;DHT22;1458;49.728;9.228;2022-09-27T04:34:40;10.40;99.90
2897;DHT22;1458;49.728;9.228;2022-09-27T04:37:26;10.40;99.90
2897;DHT22;1458;49.728;9.228;2022-09-27T04:40:00;10.30;99.90
2897;DHT22;1458;49.728;9.228;2022-09-27T04:42:31;10.20;99.90
2897;DHT22;1458;49.728;9.228;2022-09-27T04:44:59;10.20;99.90
2897;DHT22;1458;49.728;9.228;2022-09-27T04:47:26;10.20;99.90
2897;DHT22;1458;49.728;9.228;2022-09-27T04:49:54;10.20;99.90
2897;DHT22;1458;49.728;9.228;2022-09-27T04:52:22;10.20;99.90
2897;DHT22;1458;49.728;9.228;2022-09-27T04:54:51;10.20;99.90
2897;DHT22;1458;49.728;9.228;2022-09-27T04:57:20;10.30;99.90
2897;DHT22;1458;49.728;9.228;2022-09-27T04:59:49;10.20;99.90
2897;DHT22;1458;49.728;9.228;2022-09-27T05:02:17;10.20;99.90
2897;DHT22;1458;49.728;9.228;2022-09-27T05:05:03;10.20;99.90
2897;DHT22;1458;49.728;9.228;2022-09-27T05:07:36;10.20;99.90
2897;DHT22;1458;49.728;9.228;2022-09-27T05:10:09;10.10;99.90
2897;DHT22;1458;49.728;9.228;2022-09-27T05:12:37;10.20;99.90
2897;DHT22;1458;49.728;9.228;2022-09-27T05:15:08;10.20;99.90
2897;DHT22;1458;49.728;9.228;2022-09-27T05:17:59;10.10;99.90
2897;DHT22;1458;49.728;9.228;2022-09-27T05:20:49;10.10;99.90
2897;DHT22;1458;49.728;9.228;2022-09-27T05:23:24;10.10;99.90
2897;DHT22;1458;49.728;9.228;2022-09-27T05:25:55;10.10;99.90
2897;DHT22;1458;49.728;9.228;2022-09-27T05:28:22;10.10;99.90
2897;DHT22;1458;49.728;9.228;2022-09-27T05:30:52;10.00;99.90
2897;DHT22;1458;49.728;9.228;2022-09-27T05:33:20;10.00;99.90
2897;DHT22;1458;49.728;9.228;2022-09-27T05:35:52;10.10;99.90
2897;DHT22;1458;49.728;9.228;2022-09-27T05:38:24;10.20;99.90
2897;DHT22;1458;49.728;9.228;2022-09-27T05:40:55;10.20;99.90
2897;DHT22;1458;49.728;9.228;2022-09-27T05:43:23;10.20;99.90
2897;DHT22;1458;49.728;9.228;2022-09-27T05:45:54;10.20;99.90
2897;DHT22;1458;49.728;9.228;2022-09-27T05:48:23;10.20;99.90
2897;DHT22;1458;49.728;9.228;2022-09-27T05:50:56;10.30;99.90
2897;DHT22;1458;49.728;9.228;2022-09-27T05:53:23;10.30;99.90
2897;DHT22;1458;49.728;9.228;2022-09-27T05:55:52;10.30;99.90
2897;DHT22;1458;49.728;9.228;2022-09-27T05:58:28;10.40;99.90
2897;DHT22;1458;49.728;9.228;2022-09-27T06:01:17;10.40;99.90
2897;DHT22;1458;49.728;9.228;2022-09-27T06:04:03;10.40;99.90
2897;DHT22;1458;49.728;9.228;2022-09-27T06:07:03;10.50;99.90
2897;DHT22;1458;49.728;9.228;2022-09-27T06:09:31;10.50;99.90
2897;DHT22;1458;49.728;9.228;2022-09-27T06:11:58;10.50;99.90
2897;DHT22;1458;49.728;9.228;2022-09-27T06:14:26;10.50;99.90
2897;DHT22;1458;49.728;9.228;2022-09-27T06:17:08;10.50;99.90
2897;DHT22;1458;49.728;9.228;2022-09-27T06:19:39;10.50;99.90
2897;DHT22;1458;49.728;9.228;2022-09-27T06:22:07;10.50;99.90
2897;DHT22;1458;49.728;9.228;2022-09-27T06:24:44;10.50;99.90
2897;DHT22;1458;49.728;9.228;2022-09-27T06:27:18;10.60;99.90
2897;DHT22;1458;49.728;9.228;2022-09-27T06:30:15;10.60;99.90
2897;DHT22;1458;49.728;9.228;2022-09-27T06:32:55;10.70;99.90
2897;DHT22;1458;49.728;9.228;2022-09-27T06:35:38;10.80;99.90
2897;DHT22;1458;49.728;9.228;2022-09-27T06:38:08;10.70;99.90
2897;DHT22;1458;49.728;9.228;2022-09-27T06:40:44;10.70;99.90
2897;DHT22;1458;49.728;9.228;2022-09-27T06:43:29;10.70;99.90
2897;DHT22;1458;49.728;9.228;2022-09-27T06:46:04;10.80;99.90
2897;DHT22;1458;49.728;9.228;2022-09-27T06:48:45;10.80;99.90
2897;DHT22;1458;49.728;9.228;2022-09-27T06:51:16;10.80;99.90
2897;DHT22;1458;49.728;9.228;2022-09-27T06:53:48;10.80;99.90
2897;DHT22;1458;49.728;9.228;2022-09-27T06:56:15;10.80;99.90
2897;DHT22;1458;49.728;9.228;2022-09-27T06:58:52;10.70;99.90
2897;DHT22;1458;49.728;9.228;2022-09-27T07:01:40;10.80;99.90
2897;DHT22;1458;49.728;9.228;2022-09-27T07:04:31;10.90;99.90
2897;DHT22;1458;49.728;9.228;2022-09-27T07:07:03;10.90;99.90
2897;DHT22;1458;49.728;9.228;2022-09-27T07:09:34;10.90;99.90
2897;DHT22;1458;49.728;9.228;2022-09-27T07:12:04;10.90;99.90
2897;DHT22;1458;49.728;9.228;2022-09-27T07:14:32;10.90;99.90
2897;DHT22;1458;49.728;9.228;2022-09-27T07:17:01;11.00;99.90
2897;DHT22;1458;49.728;9.228;2022-09-27T07:19:36;11.30;99.90
2897;DHT22;1458;49.728;9.228;2022-09-27T07:22:04;11.20;99.90
2897;DHT22;1458;49.728;9.228;2022-09-27T07:24:32;11.20;99.90
2897;DHT22;1458;49.728;9.228;2022-09-27T07:27:00;11.10;99.90
2897;DHT22;1458;49.728;9.228;2022-09-27T07:29:28;11.30;99.90
2897;DHT22;1458;49.728;9.228;2022-09-27T07:31:55;11.50;99.90
2897;DHT22;1458;49.728;9.228;2022-09-27T07:34:23;11.40;99.90
2897;DHT22;1458;49.728;9.228;2022-09-27T07:36:52;11.20;99.90
2897;DHT22;1458;49.728;9.228;2022-09-27T07:39:26;11.20;99.90
2897;DHT22;1458;49.728;9.228;2022-09-27T07:41:53;11.20;99.90
2897;DHT22;1458;49.728;9.228;2022-09-27T07:44:21;11.20;99.90
2897;DHT22;1458;49.728;9.228;2022-09-27T07:47:14;11.30;99.90
2897;DHT22;1458;49.728;9.228;2022-09-27T07:50:03;11.20;99.90
2897;DHT22;1458;49.728;9.228;2022-09-27T07:52:56;11.40;99.90
2897;DHT22;1458;49.728;9.228;2022-09-27T07:55:50;11.50;99.90
2897;DHT22;1458;49.728;9.228;2022-09-27T07:58:21;11.70;99.90
2897;DHT22;1458;49.728;9.228;2022-09-27T08:00:51;11.80;99.90
2897;DHT22;1458;49.728;9.228;2022-09-27T08:03:21;11.80;99.90
2897;DHT22;1458;49.728;9.228;2022-09-27T08:05:50;12.00;99.90
2897;DHT22;1458;49.728;9.228;2022-09-27T08:08:19;12.10;99.90
2897;DHT22;1458;49.728;9.228;2022-09-27T08:10:48;12.20;99.90
2897;DHT22;1458;49.728;9.228;2022-09-27T08:13:17;12.10;99.90
2897;DHT22;1458;49.728;9.228;2022-09-27T08:15:45;12.00;99.90
2897;DHT22;1458;49.728;9.228;2022-09-27T08:18:15;12.10;99.90
2897;DHT22;1458;49.728;9.228;2022-09-27T08:20:49;12.20;99.90
2897;DHT22;1458;49.728;9.228;2022-09-27T08:23:30;12.10;99.90
2897;DHT22;1458;49.728;9.228;2022-09-27T08:26:21;11.80;99.90
2897;DHT22;1458;49.728;9.228;2022-09-27T08:28:54;11.70;99.90
2897;DHT22;1458;49.728;9.228;2022-09-27T08:31:25;11.80;99.90
2897;DHT22;1458;49.728;9.228;2022-09-27T08:33:54;11.70;99.90
2897;DHT22;1458;49.728;9.228;2022-09-27T08:36:23;11.40;99.90
2897;DHT22;1458;49.728;9.228;2022-09-27T08:38:52;11.30;99.90
2897;DHT22;1458;49.728;9.228;2022-09-27T08:41:33;11.30;99.90
2897;DHT22;1458;49.728;9.228;2022-09-27T08:44:12;11.40;99.90
2897;DHT22;1458;49.728;9.228;2022-09-27T08:47:01;11.50;99.90
2897;DHT22;1458;49.728;9.228;2022-09-27T08:49:36;11.70;99.90
2897;DHT22;1458;49.728;9.228;2022-09-27T08:52:11;11.90;99.90
2897;DHT22;1458;49.728;9.228;2022-09-27T08:54:42;12.00;99.90
2897;DHT22;1458;49.728;9.228;2022-09-27T08:57:13;12.10;99.90
2897;DHT22;1458;49.728;9.228;2022-09-27T08:59:46;12.30;99.90
2897;DHT22;1458;49.728;9.228;2022-09-27T09:02:18;12.50;99.90
2897;DHT22;1458;49.728;9.228;2022-09-27T09:04:53;12.60;99.80
2897;DHT22;1458;49.728;9.228;2022-09-27T09:07:36;12.80;99.90
2897;DHT22;1458;49.728;9.228;2022-09-27T09:10:25;12.70;99.20
2897;DHT22;1458;49.728;9.228;2022-09-27T09:13:24;12.90;99.20
2897;DHT22;1458;49.728;9.228;2022-09-27T09:16:20;13.20;99.00
2897;DHT22;1458;49.728;9.228;2022-09-27T09:19:04;13.10;98.30
2897;DHT22;1458;49.728;9.228;2022-09-27T09:22:10;13.10;98.10
2897;DHT22;1458;49.728;9.228;2022-09-27T09:24:51;13.20;96.90
2897;DHT22;1458;49.728;9.228;2022-09-27T09:27:35;13.20;97.40
2897;DHT22;1458;49.728;9.228;2022-09-27T09:30:18;13.30;96.10
2897;DHT22;1458;49.728;9.228;2022-09-27T09:33:03;13.50;97.10
2897;DHT22;1458;49.728;9.228;2022-09-27T09:35:41;13.90;98.00
2897;DHT22;1458;49.728;9.228;2022-09-27T09:38:16;14.20;96.10
2897;DHT22;1458;49.728;9.228;2022-09-27T09:40:54;14.30;95.60
2897;DHT22;1458;49.728;9.228;2022-09-27T09:43:29;14.60;96.00
2897;DHT22;1458;49.728;9.228;2022-09-27T09:46:04;14.30;94.70
2897;DHT22;1458;49.728;9.228;2022-09-27T09:48:39;14.20;94.20
2897;DHT22;1458;49.728;9.228;2022-09-27T09:51:14;13.70;94.20
2897;DHT22;1458;49.728;9.228;2022-09-27T09:53:48;13.40;94.90
2897;DHT22;1458;49.728;9.228;2022-09-27T09:56:28;13.30;96.00
2897;DHT22;1458;49.728;9.228;2022-09-27T09:59:02;13.50;95.70
2897;DHT22;1458;49.728;9.228;2022-09-27T10:01:40;13.70;94.20
2897;DHT22;1458;49.728;9.228;2022-09-27T10:04:11;13.60;94.80
2897;DHT22;1458;49.728;9.228;2022-09-27T10:06:43;13.30;93.80
2897;DHT22;1458;49.728;9.228;2022-09-27T10:09:12;13.20;93.80
2897;DHT22;1458;49.728;9.228;2022-09-27T10:12:04;13.10;95.70
2897;DHT22;1458;49.728;9.228;2022-09-27T10:14:36;13.20;95.60
2897;DHT22;1458;49.728;9.228;2022-09-27T10:17:10;13.10;97.10
2897;DHT22;1458;49.728;9.228;2022-09-27T10:19:41;12.90;98.30
2897;DHT22;1458;49.728;9.228;2022-09-27T10:22:13;12.70;99.50
2897;DHT22;1458;49.728;9.228;2022-09-27T10:24:54;12.60;99.90
2897;DHT22;1458;49.728;9.228;2022-09-27T10:27:45;12.30;99.90
2897;DHT22;1458;49.728;9.228;2022-09-27T10:30:25;12.10;99.90
2897;DHT22;1458;49.728;9.228;2022-09-27T10:32:58;12.00;99.90
2897;DHT22;1458;49.728;9.228;2022-09-27T10:35:44;12.00;99.90
2897;DHT22;1458;49.728;9.228;2022-09-27T10:38:51;12.00;99.90
2897;DHT22;1458;49.728;9.228;2022-09-27T10:41:35;11.80;99.90
2897;DHT22;1458;49.728;9.228;2022-09-27T10:44:20;11.70;99.90
2897;DHT22;1458;49.728;9.228;2022-09-27T10:47:18;12.00;99.90
2897;DHT22;1458;49.728;9.228;2022-09-27T10:50:16;12.70;99.90
2897;DHT22;1458;49.728;9.228;2022-09-27T10:53:11;13.10;99.90
2897;DHT22;1458;49.728;9.228;2022-09-27T10:55:42;13.20;99.90
2897;DHT22;1458;49.728;9.228;2022-09-27T10:58:17;13.20;99.90
2897;DHT22;1458;49.728;9.228;2022-09-27T11:00:54;13.40;99.90
2897;DHT22;1458;49.728;9.228;2022-09-27T11:03:24;13.40;99.50
2897;DHT22;1458;49.728;9.228;2022-09-27T11:05:57;13.50;98.00
2897;DHT22;1458;49.728;9.228;2022-09-27T11:08:31;13.50;97.60
2897;DHT22;1458;49.728;9.228;2022-09-27T11:11:16;13.60;98.10
2897;DHT22;1458;49.728;9.228;2022-09-27T11:14:00;13.50;97.20
2897;DHT22;1458;49.728;9.228;2022-09-27T11:16:47;13.30;98.50
2897;DHT22;1458;49.728;9.228;2022-09-27T11:26:02;12.20;99.00
2897;DHT22;1458;49.728;9.228;2022-09-27T11:28:47;12.10;99.90
2897;DHT22;1458;49.728;9.228;2022-09-27T11:31:53;12.00;99.90
2897;DHT22;1458;49.728;9.228;2022-09-27T11:37:34;12.10;99.90
2897;DHT22;1458;49.728;9.228;2022-09-27T11:40:15;12.20;99.90
2897;DHT22;1458;49.728;9.228;2022-09-27T11:46:12;12.60;99.90
2897;DHT22;1458;49.728;9.228;2022-09-27T11:49:02;13.00;99.90
2897;DHT22;1458;49.728;9.228;2022-09-27T11:52:02;13.20;97.30
2897;DHT22;1458;49.728;9.228;2022-09-27T11:54:53;13.40;97.40
2897;DHT22;1458;49.728;9.228;2022-09-27T11:57:35;13.30;95.00
2897;DHT22;1458;49.728;9.228;2022-09-27T12:00:16;13.40;96.80
2897;DHT22;1458;49.728;9.228;2022-09-27T12:03:27;13.70;96.80
2897;DHT22;1458;49.728;9.228;2022-09-27T12:06:09;13.60;95.70
2897;DHT22;1458;49.728;9.228;2022-09-27T12:08:52;13.50;96.10
2897;DHT22;1458;49.728;9.228;2022-09-27T12:11:28;13.70;95.80
2897;DHT22;1458;49.728;9.228;2022-09-27T12:14:00;13.80;95.20
2897;DHT22;1458;49.728;9.228;2022-09-27T12:16:31;13.90;96.00
2897;DHT22;1458;49.728;9.228;2022-09-27T12:19:00;13.80;95.20
2897;DHT22;1458;49.728;9.228;2022-09-27T12:21:45;14.10;95.30
2897;DHT22;1458;49.728;9.228;2022-09-27T12:24:19;14.20;93.70
2897;DHT22;1458;49.728;9.228;2022-09-27T12:27:22;13.90;92.70
2897;DHT22;1458;49.728;9.228;2022-09-27T12:30:00;13.70;93.40
2897;DHT22;1458;49.728;9.228;2022-09-27T12:32:32;13.70;93.60
2897;DHT22;1458;49.728;9.228;2022-09-27T12:35:08;13.80;94.20
2897;DHT22;1458;49.728;9.228;2022-09-27T12:37:44;14.00;92.40
2897;DHT22;1458;49.728;9.228;2022-09-27T12:40:20;14.00;92.80
2897;DHT22;1458;49.728;9.228;2022-09-27T12:42:55;13.90;92.00
2897;DHT22;1458;49.728;9.228;2022-09-27T12:45:42;13.90;92.50
2897;DHT22;1458;49.728;9.228;2022-09-27T12:48:20;13.90;92.30
2897;DHT22;1458;49.728;9.228;2022-09-27T12:50:54;13.80;93.30
2897;DHT22;1458;49.728;9.228;2022-09-27T12:53:28;13.80;92.50
2897;DHT22;1458;49.728;9.228;2022-09-27T12:56:08;13.50;92.30
2897;DHT22;1458;49.728;9.228;2022-09-27T13:08:17;13.80;92.10
2897;DHT22;1458;49.728;9.228;2022-09-27T13:10:58;13.50;90.50
2897;DHT22;1458;49.728;9.228;2022-09-27T13:13:35;13.50;91.00
2897;DHT22;1458;49.728;9.228;2022-09-27T13:16:07;13.60;91.10
2897;DHT22;1458;49.728;9.228;2022-09-27T13:18:52;13.70;91.90
2897;DHT22;1458;49.728;9.228;2022-09-27T13:21:53;13.60;91.30
2897;DHT22;1458;49.728;9.228;2022-09-27T13:24:44;13.60;91.10
2897;DHT22;1458;49.728;9.228;2022-09-27T13:27:43;13.80;91.40
2897;DHT22;1458;49.728;9.228;2022-09-27T13:30:45;13.80;90.90
2897;DHT22;1458;49.728;9.228;2022-09-27T13:33:38;13.90;91.40
2897;DHT22;1458;49.728;9.228;2022-09-27T13:36:31;13.70;90.60
2897;DHT22;1458;49.728;9.228;2022-09-27T13:39:17;13.80;90.30
2897;DHT22;1458;49.728;9.228;2022-09-27T13:42:24;13.80;92.00
2897;DHT22;1458;49.728;9.228;2022-09-27T13:45:15;13.80;90.60
2897;DHT22;1458;49.728;9.228;2022-09-27T13:47:48;13.70;91.50
2897;DHT22;1458;49.728;9.228;2022-09-27T13:50:28;13.90;92.10
2897;DHT22;1458;49.728;9.228;2022-09-27T13:53:13;13.90;91.00
2897;DHT22;1458;49.728;9.228;2022-09-27T13:55:49;14.00;90.70
2897;DHT22;1458;49.728;9.228;2022-09-27T13:58:42;13.80;90.60
2897;DHT22;1458;49.728;9.228;2022-09-27T14:01:46;13.70;91.30
2897;DHT22;1458;49.728;9.228;2022-09-27T14:04:23;13.60;91.90
2897;DHT22;1458;49.728;9.228;2022-09-27T14:06:55;13.70;91.90
2897;DHT22;1458;49.728;9.228;2022-09-27T14:09:29;13.70;92.10
2897;DHT22;1458;49.728;9.228;2022-09-27T14:12:07;13.80;92.10
2897;DHT22;1458;49.728;9.228;2022-09-27T14:14:40;13.50;92.90
2897;DHT22;1458;49.728;9.228;2022-09-27T14:17:10;13.20;93.80
2897;DHT22;1458;49.728;9.228;2022-09-27T14:19:42;13.30;95.10
2897;DHT22;1458;49.728;9.228;2022-09-27T14:22:14;13.10;95.00
2897;DHT22;1458;49.728;9.228;2022-09-27T14:24:52;13.10;94.30
2897;DHT22;1458;49.728;9.228;2022-09-27T14:27:36;12.90;94.90
2897;DHT22;1458;49.728;9.228;2022-09-27T14:30:33;12.60;95.90
2897;DHT22;1458;49.728;9.228;2022-09-27T14:33:29;12.60;96.40
2897;DHT22;1458;49.728;9.228;2022-09-27T14:36:25;12.30;97.90
2897;DHT22;1458;49.728;9.228;2022-09-27T14:39:13;12.30;99.10
2897;DHT22;1458;49.728;9.228;2022-09-27T14:41:44;12.30;99.90
2897;DHT22;1458;49.728;9.228;2022-09-27T14:44:15;12.30;99.90
2897;DHT22;1458;49.728;9.228;2022-09-27T14:46:45;12.30;99.90
2897;DHT22;1458;49.728;9.228;2022-09-27T14:49:21;12.50;98.90
2897;DHT22;1458;49.728;9.228;2022-09-27T14:51:50;12.70;98.30
2897;DHT22;1458;49.728;9.228;2022-09-27T14:54:23;12.80;97.30
2897;DHT22;1458;49.728;9.228;2022-09-27T14:56:52;12.90;95.30
2897;DHT22;1458;49.728;9.228;2022-09-27T14:59:25;13.00;95.30
2897;DHT22;1458;49.728;9.228;2022-09-27T15:01:57;13.20;96.20
2897;DHT22;1458;49.728;9.228;2022-09-27T15:04:29;13.40;96.40
2897;DHT22;1458;49.728;9.228;2022-09-27T15:06:59;13.50;94.50
2897;DHT22;1458;49.728;9.228;2022-09-27T15:09:29;13.50;95.10
2897;DHT22;1458;49.728;9.228;2022-09-27T15:11:58;13.60;94.00
2897;DHT22;1458;49.728;9.228;2022-09-27T15:14:27;13.70;93.20
2897;DHT22;1458;49.728;9.228;2022-09-27T15:16:58;13.70;93.60
2897;DHT22;1458;49.728;9.228;2022-09-27T15:19:32;13.60;93.30
2897;DHT22;1458;49.728;9.228;2022-09-27T15:22:21;13.50;93.50
2897;DHT22;1458;49.728;9.228;2022-09-27T15:24:50;13.70;95.30
2897;DHT22;1458;49.728;9.228;2022-09-27T15:27:20;13.70;94.80
2897;DHT22;1458;49.728;9.228;2022-09-27T15:29:49;13.80;95.20
2897;DHT22;1458;49.728;9.228;2022-09-27T15:32:20;13.70;94.10
2897;DHT22;1458;49.728;9.228;2022-09-27T15:34:50;13.70;94.70
2897;DHT22;1458;49.728;9.228;2022-09-27T15:37:26;13.60;94.80
2897;DHT22;1458;49.728;9.228;2022-09-27T15:39:56;13.80;95.30
2897;DHT22;1458;49.728;9.228;2022-09-27T15:42:54;13.70;93.60
2897;DHT22;1458;49.728;9.228;2022-09-27T15:45:27;13.70;94.20
2897;DHT22;1458;49.728;9.228;2022-09-27T15:47:56;13.40;94.30
2897;DHT22;1458;49.728;9.228;2022-09-27T15:50:38;13.40;94.40
2897;DHT22;1458;49.728;9.228;2022-09-27T15:53:06;13.40;94.60
2897;DHT22;1458;49.728;9.228;2022-09-27T15:55:38;13.40;95.80
2897;DHT22;1458;49.728;9.228;2022-09-27T15:58:12;13.60;94.90
2897;DHT22;1458;49.728;9.228;2022-09-27T16:00:50;13.50;94.90
2897;DHT22;1458;49.728;9.228;2022-09-27T16:03:19;13.40;95.10
2897;DHT22;1458;49.728;9.228;2022-09-27T16:05:48;13.40;94.80
2897;DHT22;1458;49.728;9.228;2022-09-27T16:08:15;13.20;94.20
2897;DHT22;1458;49.728;9.228;2022-09-27T16:10:45;13.00;95.00
2897;DHT22;1458;49.728;9.228;2022-09-27T16:13:14;12.90;95.20
2897;DHT22;1458;49.728;9.228;2022-09-27T16:15:42;12.70;96.10
2897;DHT22;1458;49.728;9.228;2022-09-27T16:18:10;12.60;96.10
2897;DHT22;1458;49.728;9.228;2022-09-27T16:20:38;12.40;95.20
2897;DHT22;1458;49.728;9.228;2022-09-27T16:23:06;12.20;95.20
2897;DHT22;1458;49.728;9.228;2022-09-27T16:25:34;12.10;95.50
2897;DHT22;1458;49.728;9.228;2022-09-27T16:28:03;12.00;96.00
2897;DHT22;1458;49.728;9.228;2022-09-27T16:30:31;11.90;96.40
2897;DHT22;1458;49.728;9.228;2022-09-27T16:32:59;11.80;96.40
2897;DHT22;1458;49.728;9.228;2022-09-27T16:35:26;11.70;97.20
2897;DHT22;1458;49.728;9.228;2022-09-27T16:37:54;11.70;97.30
2897;DHT22;1458;49.728;9.228;2022-09-27T16:40:24;11.80;97.60
2897;DHT22;1458;49.728;9.228;2022-09-27T16:42:52;11.80;97.60
2897;DHT22;1458;49.728;9.228;2022-09-27T16:45:20;11.70;97.90
2897;DHT22;1458;49.728;9.228;2022-09-27T16:47:48;11.60;97.80
2897;DHT22;1458;49.728;9.228;2022-09-27T16:50:16;11.20;99.40
2897;DHT22;1458;49.728;9.228;2022-09-27T16:53:00;11.10;99.90
2897;DHT22;1458;49.728;9.228;2022-09-27T16:55:34;10.90;99.90
2897;DHT22;1458;49.728;9.228;2022-09-27T16:58:02;10.80;99.90
2897;DHT22;1458;49.728;9.228;2022-09-27T17:00:32;10.80;99.90
2897;DHT22;1458;49.728;9.228;2022-09-27T17:02:59;10.80;99.90
2897;DHT22;1458;49.728;9.228;2022-09-27T17:05:30;10.80;99.90
2897;DHT22;1458;49.728;9.228;2022-09-27T17:07:57;10.50;99.90
2897;DHT22;1458;49.728;9.228;2022-09-27T17:10:26;10.40;99.90
2897;DHT22;1458;49.728;9.228;2022-09-27T17:12:57;10.40;99.90
2897;DHT22;1458;49.728;9.228;2022-09-27T17:15:26;10.40;99.90
2897;DHT22;1458;49.728;9.228;2022-09-27T17:17:54;10.20;99.90
2897;DHT22;1458;49.728;9.228;2022-09-27T17:20:21;10.20;99.90
2897;DHT22;1458;49.728;9.228;2022-09-27T17:22:49;10.10;99.90
2897;DHT22;1458;49.728;9.228;2022-09-27T17:25:16;10.10;99.90